sensor_id;sensor_type;location;lat;lon;timestamp;temperature;humidity
3919;DHT22;1974;48.670;8.994;2023-07-20T00:02:01;19.20;98.20
3919;DHT22;1974;48.670;8.994;2023-07-20T00:04:30;19.20;97.70
3919;DHT22;1974;48.670;8.994;2023-07-20T00:06:57;19.10;97.70
3919;DHT22;1974;48.670;8.994;2023-07-20T00:09:24;19.10;97.40
3919;DHT22;1974;48.670;8.994;2023-07-20T00:11:52;19.00;97.60
3919;DHT22;1974;48.670;8.994;2023-07-20T00:14:20;19.00;97.60
3919;DHT22;1974;48.670;8.994;2023-07-20T00:16:49;19.00;97.30
3919;DHT22;1974;48.670;8.994;2023-07-20T00:19:21;18.90;97.50
3919;DHT22;1974;48.670;8.994;2023-07-20T00:21:48;18.90;97.40
3919;DHT22;1974;48.670;8.994;2023-07-20T00:24:15;18.90;97.40
3919;DHT22;1974;48.670;8.994;2023-07-20T00:26:42;18.80;96.90
3919;DHT22;1974;48.670;8.994;2023-07-20T00:29:10;18.80;96.70
3919;DHT22;1974;48.670;8.994;2023-07-20T00:31:37;18.80;96.90
3919;DHT22;1974;48.670;8.994;2023-07-20T00:34:04;18.70;97.00
3919;DHT22;1974;48.670;8.994;2023-07-20T00:36:31;18.70;97.30
3919;DHT22;1974;48.670;8.994;2023-07-20T00:38:58;18.70;97.10
3919;DHT22;1974;48.670;8.994;2023-07-20T00:41:25;18.70;97.30
3919;DHT22;1974;48.670;8.994;2023-07-20T00:43:54;18.70;96.90
3919;DHT22;1974;48.670;8.994;2023-07-20T00:46:24;18.60;96.60
3919;DHT22;1974;48.670;8.994;2023-07-20T00:48:51;18.60;96.30
3919;DHT22;1974;48.670;8.994;2023-07-20T00:51:19;18.60;96.70
3919;DHT22;1974;48.670;8.994;2023-07-20T00:53:46;18.60;96.80
3919;DHT22;1974;48.670;8.994;2023-07-20T00:56:13;18.60;96.80
3919;DHT22;1974;48.670;8.994;2023-07-20T00:58:41;18.50;96.80
3919;DHT22;1974;48.670;8.994;2023-07-20T01:01:08;18.50;96.60
3919;DHT22;1974;48.670;8.994;2023-07-20T01:03:36;18.50;96.40
3919;DHT22;1974;48.670;8.994;2023-07-20T01:06:11;18.50;96.90
3919;DHT22;1974;48.670;8.994;2023-07-20T01:08:45;18.40;96.90
3919;DHT22;1974;48.670;8.994;2023-07-20T01:11:19;18.40;96.80
3919;DHT22;1974;48.670;8.994;2023-07-20T01:13:47;18.30;96.90
3919;DHT22;1974;48.670;8.994;2023-07-20T01:16:13;18.30;96.70
3919;DHT22;1974;48.670;8.994;2023-07-20T01:18:41;18.30;96.70
3919;DHT22;1974;48.670;8.994;2023-07-20T01:21:18;18.20;97.00
3919;DHT22;1974;48.670;8.994;2023-07-20T01:27:06;18.20;97.10
3919;DHT22;1974;48.670;8.994;2023-07-20T01:29:58;18.20;97.20
3919;DHT22;1974;48.670;8.994;2023-07-20T01:32:31;18.10;97.10
3919;DHT22;1974;48.670;8.994;2023-07-20T01:34:58;18.20;97.30
3919;DHT22;1974;48.670;8.994;2023-07-20T01:37:27;18.10;97.70
3919;DHT22;1974;48.670;8.994;2023-07-20T01:39:55;18.10;97.30
3919;DHT22;1974;48.670;8.994;2023-07-20T01:42:23;18.10;97.50
3919;DHT22;1974;48.670;8.994;2023-07-20T01:44:50;18.10;97.70
3919;DHT22;1974;48.670;8.994;2023-07-20T01:47:18;18.00;97.80
3919;DHT22;1974;48.670;8.994;2023-07-20T01:49:46;18.00;98.00
3919;DHT22;1974;48.670;8.994;2023-07-20T01:52:13;17.90;98.10
3919;DHT22;1974;48.670;8.994;2023-07-20T01:54:40;17.90;98.10
3919;DHT22;1974;48.670;8.994;2023-07-20T01:57:07;17.90;98.30
3919;DHT22;1974;48.670;8.994;2023-07-20T01:59:34;17.90;98.40
3919;DHT22;1974;48.670;8.994;2023-07-20T02:02:01;17.80;98.30
3919;DHT22;1974;48.670;8.994;2023-07-20T02:04:28;17.80;98.60
3919;DHT22;1974;48.670;8.994;2023-07-20T02:06:56;17.80;98.50
3919;DHT22;1974;48.670;8.994;2023-07-20T02:09:23;17.80;98.40
3919;DHT22;1974;48.670;8.994;2023-07-20T02:11:49;17.70;98.70
3919;DHT22;1974;48.670;8.994;2023-07-20T02:14:16;17.80;98.70
3919;DHT22;1974;48.670;8.994;2023-07-20T02:16:43;17.70;98.90
3919;DHT22;1974;48.670;8.994;2023-07-20T02:19:10;17.70;99.00
3919;DHT22;1974;48.670;8.994;2023-07-20T02:21:36;17.70;98.80
3919;DHT22;1974;48.670;8.994;2023-07-20T02:24:05;17.70;99.30
3919;DHT22;1974;48.670;8.994;2023-07-20T02:26:32;17.60;99.20
3919;DHT22;1974;48.670;8.994;2023-07-20T02:28:59;17.60;99.20
3919;DHT22;1974;48.670;8.994;2023-07-20T02:31:26;17.60;99.20
3919;DHT22;1974;48.670;8.994;2023-07-20T02:33:52;17.60;99.40
3919;DHT22;1974;48.670;8.994;2023-07-20T02:36:19;17.60;99.10
3919;DHT22;1974;48.670;8.994;2023-07-20T02:38:46;17.50;99.60
3919;DHT22;1974;48.670;8.994;2023-07-20T02:41:14;17.60;99.90
3919;DHT22;1974;48.670;8.994;2023-07-20T02:43:41;17.60;99.90
3919;DHT22;1974;48.670;8.994;2023-07-20T02:46:08;17.50;99.80
3919;DHT22;1974;48.670;8.994;2023-07-20T02:48:34;17.50;99.90
3919;DHT22;1974;48.670;8.994;2023-07-20T02:51:01;17.50;99.90
3919;DHT22;1974;48.670;8.994;2023-07-20T02:53:28;17.50;99.90
3919;DHT22;1974;48.670;8.994;2023-07-20T02:55:55;17.50;99.90
3919;DHT22;1974;48.670;8.994;2023-07-20T02:58:23;17.50;99.90
3919;DHT22;1974;48.670;8.994;2023-07-20T03:00:49;17.50;99.90
3919;DHT22;1974;48.670;8.994;2023-07-20T03:03:16;17.50;99.90
3919;DHT22;1974;48.670;8.994;2023-07-20T03:05:43;17.40;99.90
3919;DHT22;1974;48.670;8.994;2023-07-20T03:08:10;17.40;99.90
3919;DHT22;1974;48.670;8.994;2023-07-20T03:10:40;17.40;99.90
3919;DHT22;1974;48.670;8.994;2023-07-20T03:13:07;17.40;99.90
3919;DHT22;1974;48.670;8.994;2023-07-20T03:15:35;17.40;99.90
3919;DHT22;1974;48.670;8.994;2023-07-20T03:18:02;17.30;99.90
3919;DHT22;1974;48.670;8.994;2023-07-20T03:20:30;17.30;99.90
3919;DHT22;1974;48.670;8.994;2023-07-20T03:22:57;17.30;99.90
3919;DHT22;1974;48.670;8.994;2023-07-20T03:25:24;17.20;99.90
3919;DHT22;1974;48.670;8.994;2023-07-20T03:27:50;17.20;99.90
3919;DHT22;1974;48.670;8.994;2023-07-20T03:30:17;17.20;99.90
3919;DHT22;1974;48.670;8.994;2023-07-20T03:32:45;17.20;99.90
3919;DHT22;1974;48.670;8.994;2023-07-20T03:35:12;17.20;99.90
3919;DHT22;1974;48.670;8.994;2023-07-20T03:37:41;17.20;99.90
3919;DHT22;1974;48.670;8.994;2023-07-20T03:40:09;17.20;99.90
3919;DHT22;1974;48.670;8.994;2023-07-20T03:42:36;17.20;99.90
3919;DHT22;1974;48.670;8.994;2023-07-20T03:45:05;17.10;99.90
3919;DHT22;1974;48.670;8.994;2023-07-20T03:47:32;17.10;99.90
3919;DHT22;1974;48.670;8.994;2023-07-20T03:50:00;17.10;99.90
3919;DHT22;1974;48.670;8.994;2023-07-20T03:52:26;17.00;99.90
3919;DHT22;1974;48.670;8.994;2023-07-20T03:54:53;17.00;99.90
3919;DHT22;1974;48.670;8.994;2023-07-20T03:57:20;17.00;99.90
3919;DHT22;1974;48.670;8.994;2023-07-20T03:59:48;16.90;99.90
3919;DHT22;1974;48.670;8.994;2023-07-20T04:02:15;17.00;99.90
3919;DHT22;1974;48.670;8.994;2023-07-20T04:04:42;17.00;99.90
3919;DHT22;1974;48.670;8.994;2023-07-20T04:07:10;17.00;99.90
3919;DHT22;1974;48.670;8.994;2023-07-20T04:09:37;16.90;99.90
3919;DHT22;1974;48.670;8.994;2023-07-20T04:12:04;16.70;99.90
3919;DHT22;1974;48.670;8.994;2023-07-20T04:14:31;16.80;99.90
3919;DHT22;1974;48.670;8.994;2023-07-20T04:16:57;16.90;99.90
3919;DHT22;1974;48.670;8.994;2023-07-20T04:19:25;17.00;99.90
3919;DHT22;1974;48.670;8.994;2023-07-20T04:21:52;17.10;99.90
3919;DHT22;1974;48.670;8.994;2023-07-20T04:24:20;17.10;99.90
3919;DHT22;1974;48.670;8.994;2023-07-20T04:26:47;17.20;99.90
3919;DHT22;1974;48.670;8.994;2023-07-20T04:29:14;17.20;99.90
3919;DHT22;1974;48.670;8.994;2023-07-20T04:31:40;17.00;99.90
3919;DHT22;1974;48.670;8.994;2023-07-20T04:34:07;17.00;99.90
3919;DHT22;1974;48.670;8.994;2023-07-20T04:36:34;17.10;99.90
3919;DHT22;1974;48.670;8.994;2023-07-20T04:39:01;17.30;99.90
3919;DHT22;1974;48.670;8.994;2023-07-20T04:41:30;17.40;99.90
3919;DHT22;1974;48.670;8.994;2023-07-20T04:43:56;17.50;99.90
3919;DHT22;1974;48.670;8.994;2023-07-20T04:46:23;17.50;99.90
3919;DHT22;1974;48.670;8.994;2023-07-20T04:48:50;17.60;99.90
3919;DHT22;1974;48.670;8.994;2023-07-20T04:51:17;17.60;99.90
3919;DHT22;1974;48.670;8.994;2023-07-20T04:53:46;17.70;99.90
3919;DHT22;1974;48.670;8.994;2023-07-20T04:56:13;17.70;99.90
3919;DHT22;1974;48.670;8.994;2023-07-20T04:58:41;17.60;99.90
3919;DHT22;1974;48.670;8.994;2023-07-20T05:01:08;17.60;99.90
3919;DHT22;1974;48.670;8.994;2023-07-20T05:03:35;17.60;99.90
3919;DHT22;1974;48.670;8.994;2023-07-20T05:06:01;17.70;99.90
3919;DHT22;1974;48.670;8.994;2023-07-20T05:08:28;17.70;99.90
3919;DHT22;1974;48.670;8.994;2023-07-20T05:10:55;17.70;99.90
3919;DHT22;1974;48.670;8.994;2023-07-20T05:13:21;17.80;99.90
3919;DHT22;1974;48.670;8.994;2023-07-20T05:15:52;17.80;99.90
3919;DHT22;1974;48.670;8.994;2023-07-20T05:18:19;17.80;99.90
3919;DHT22;1974;48.670;8.994;2023-07-20T05:20:46;17.80;99.90
3919;DHT22;1974;48.670;8.994;2023-07-20T05:23:13;17.90;99.90
3919;DHT22;1974;48.670;8.994;2023-07-20T05:25:40;17.90;99.90
3919;DHT22;1974;48.670;8.994;2023-07-20T05:28:07;18.00;99.90
3919;DHT22;1974;48.670;8.994;2023-07-20T05:30:34;18.00;99.90
3919;DHT22;1974;48.670;8.994;2023-07-20T05:33:04;18.10;99.90
3919;DHT22;1974;48.670;8.994;2023-07-20T05:35:30;18.10;99.90
3919;DHT22;1974;48.670;8.994;2023-07-20T05:37:57;18.30;99.90
3919;DHT22;1974;48.670;8.994;2023-07-20T05:40:24;18.30;99.90
3919;DHT22;1974;48.670;8.994;2023-07-20T05:42:51;18.40;99.90
3919;DHT22;1974;48.670;8.994;2023-07-20T05:45:19;18.50;99.90
3919;DHT22;1974;48.670;8.994;2023-07-20T05:47:46;18.60;99.90
3919;DHT22;1974;48.670;8.994;2023-07-20T05:50:14;18.50;99.90
3919;DHT22;1974;48.670;8.994;2023-07-20T05:52:41;18.60;99.90
3919;DHT22;1974;48.670;8.994;2023-07-20T05:55:08;18.70;99.90
3919;DHT22;1974;48.670;8.994;2023-07-20T05:57:35;18.80;99.90
3919;DHT22;1974;48.670;8.994;2023-07-20T06:00:06;18.80;99.90
3919;DHT22;1974;48.670;8.994;2023-07-20T06:02:33;18.90;99.90
3919;DHT22;1974;48.670;8.994;2023-07-20T06:05:00;18.90;99.90
3919;DHT22;1974;48.670;8.994;2023-07-20T06:07:28;19.00;99.90
3919;DHT22;1974;48.670;8.994;2023-07-20T06:09:55;19.00;99.90
3919;DHT22;1974;48.670;8.994;2023-07-20T06:12:21;19.20;99.90
3919;DHT22;1974;48.670;8.994;2023-07-20T06:14:48;19.20;99.90
3919;DHT22;1974;48.670;8.994;2023-07-20T06:17:15;19.30;99.90
3919;DHT22;1974;48.670;8.994;2023-07-20T06:19:41;19.20;99.90
3919;DHT22;1974;48.670;8.994;2023-07-20T06:22:08;19.20;99.90
3919;DHT22;1974;48.670;8.994;2023-07-20T06:24:37;19.30;99.90
3919;DHT22;1974;48.670;8.994;2023-07-20T06:27:04;19.30;99.90
3919;DHT22;1974;48.670;8.994;2023-07-20T06:29:31;19.40;99.90
3919;DHT22;1974;48.670;8.994;2023-07-20T06:31:58;19.40;99.90
3919;DHT22;1974;48.670;8.994;2023-07-20T06:34:25;19.40;99.90
3919;DHT22;1974;48.670;8.994;2023-07-20T06:36:51;19.50;99.90
3919;DHT22;1974;48.670;8.994;2023-07-20T06:39:18;19.60;99.90
3919;DHT22;1974;48.670;8.994;2023-07-20T06:41:46;19.70;99.90
3919;DHT22;1974;48.670;8.994;2023-07-20T06:44:13;19.70;99.90
3919;DHT22;1974;48.670;8.994;2023-07-20T06:46:40;19.80;99.90
3919;DHT22;1974;48.670;8.994;2023-07-20T06:49:07;19.80;99.90
3919;DHT22;1974;48.670;8.994;2023-07-20T06:51:34;19.80;99.90
3919;DHT22;1974;48.670;8.994;2023-07-20T06:54:01;19.90;99.90
3919;DHT22;1974;48.670;8.994;2023-07-20T06:56:30;19.90;99.90
3919;DHT22;1974;48.670;8.994;2023-07-20T06:58:58;20.10;99.90
3919;DHT22;1974;48.670;8.994;2023-07-20T07:01:24;20.20;99.90
3919;DHT22;1974;48.670;8.994;2023-07-20T07:03:51;20.40;99.90
3919;DHT22;1974;48.670;8.994;2023-07-20T07:06:18;20.60;99.90
3919;DHT22;1974;48.670;8.994;2023-07-20T07:08:46;20.70;99.90
3919;DHT22;1974;48.670;8.994;2023-07-20T07:11:13;20.90;99.90
3919;DHT22;1974;48.670;8.994;2023-07-20T07:13:40;21.10;99.90
3919;DHT22;1974;48.670;8.994;2023-07-20T07:16:08;21.00;99.90
3919;DHT22;1974;48.670;8.994;2023-07-20T07:18:34;21.00;99.90
3919;DHT22;1974;48.670;8.994;2023-07-20T07:21:01;20.90;99.90
3919;DHT22;1974;48.670;8.994;2023-07-20T07:23:28;21.00;99.90
3919;DHT22;1974;48.670;8.994;2023-07-20T07:25:55;21.20;99.90
3919;DHT22;1974;48.670;8.994;2023-07-20T07:28:21;21.40;99.90
3919;DHT22;1974;48.670;8.994;2023-07-20T07:30:48;21.50;99.90
3919;DHT22;1974;48.670;8.994;2023-07-20T07:33:16;21.60;99.90
3919;DHT22;1974;48.670;8.994;2023-07-20T07:35:43;21.90;99.90
3919;DHT22;1974;48.670;8.994;2023-07-20T07:38:10;22.10;99.90
3919;DHT22;1974;48.670;8.994;2023-07-20T07:40:36;22.20;99.90
3919;DHT22;1974;48.670;8.994;2023-07-20T07:43:03;22.30;99.90
3919;DHT22;1974;48.670;8.994;2023-07-20T07:45:30;22.20;99.90
3919;DHT22;1974;48.670;8.994;2023-07-20T07:47:57;22.40;99.90
3919;DHT22;1974;48.670;8.994;2023-07-20T07:50:25;22.50;99.80
3919;DHT22;1974;48.670;8.994;2023-07-20T07:52:52;22.60;99.90
3919;DHT22;1974;48.670;8.994;2023-07-20T07:55:19;22.70;98.90
3919;DHT22;1974;48.670;8.994;2023-07-20T07:57:46;22.80;99.00
3919;DHT22;1974;48.670;8.994;2023-07-20T08:00:14;22.90;98.60
3919;DHT22;1974;48.670;8.994;2023-07-20T08:02:44;22.90;98.50
3919;DHT22;1974;48.670;8.994;2023-07-20T08:05:11;23.10;98.20
3919;DHT22;1974;48.670;8.994;2023-07-20T08:07:40;23.20;97.50
3919;DHT22;1974;48.670;8.994;2023-07-20T08:10:07;23.30;97.90
3919;DHT22;1974;48.670;8.994;2023-07-20T08:12:34;23.30;98.00
3919;DHT22;1974;48.670;8.994;2023-07-20T08:15:01;23.20;96.10
3919;DHT22;1974;48.670;8.994;2023-07-20T08:17:29;23.30;96.80
3919;DHT22;1974;48.670;8.994;2023-07-20T08:19:56;23.50;96.40
3919;DHT22;1974;48.670;8.994;2023-07-20T08:22:23;23.70;96.90
3919;DHT22;1974;48.670;8.994;2023-07-20T08:24:51;23.90;95.60
3919;DHT22;1974;48.670;8.994;2023-07-20T08:27:17;24.00;95.40
3919;DHT22;1974;48.670;8.994;2023-07-20T08:29:44;23.70;95.10
3919;DHT22;1974;48.670;8.994;2023-07-20T08:32:11;23.40;95.20
3919;DHT22;1974;48.670;8.994;2023-07-20T08:34:39;23.30;95.80
3919;DHT22;1974;48.670;8.994;2023-07-20T08:37:06;23.10;96.10
3919;DHT22;1974;48.670;8.994;2023-07-20T08:39:35;23.10;96.60
3919;DHT22;1974;48.670;8.994;2023-07-20T08:42:04;23.30;96.60
3919;DHT22;1974;48.670;8.994;2023-07-20T08:44:33;23.40;96.10
3919;DHT22;1974;48.670;8.994;2023-07-20T08:47:01;23.50;96.70
3919;DHT22;1974;48.670;8.994;2023-07-20T08:49:29;23.80;96.50
3919;DHT22;1974;48.670;8.994;2023-07-20T08:51:58;23.90;94.90
3919;DHT22;1974;48.670;8.994;2023-07-20T08:54:29;23.80;93.90
3919;DHT22;1974;48.670;8.994;2023-07-20T08:56:59;23.60;94.80
3919;DHT22;1974;48.670;8.994;2023-07-20T08:59:29;23.50;95.20
3919;DHT22;1974;48.670;8.994;2023-07-20T09:01:58;23.40;96.20
3919;DHT22;1974;48.670;8.994;2023-07-20T09:04:25;23.30;96.70
3919;DHT22;1974;48.670;8.994;2023-07-20T09:06:52;23.30;96.30
3919;DHT22;1974;48.670;8.994;2023-07-20T09:09:18;23.30;95.90
3919;DHT22;1974;48.670;8.994;2023-07-20T09:11:48;23.40;95.80
3919;DHT22;1974;48.670;8.994;2023-07-20T09:14:15;23.50;95.30
3919;DHT22;1974;48.670;8.994;2023-07-20T09:16:51;23.70;94.60
3919;DHT22;1974;48.670;8.994;2023-07-20T09:19:18;23.90;93.20
3919;DHT22;1974;48.670;8.994;2023-07-20T09:21:46;23.70;93.40
3919;DHT22;1974;48.670;8.994;2023-07-20T09:24:13;23.60;93.90
3919;DHT22;1974;48.670;8.994;2023-07-20T09:26:44;23.40;94.00
3919;DHT22;1974;48.670;8.994;2023-07-20T09:29:11;23.30;93.80
3919;DHT22;1974;48.670;8.994;2023-07-20T09:31:38;23.20;94.30
3919;DHT22;1974;48.670;8.994;2023-07-20T09:34:06;23.10;94.20
3919;DHT22;1974;48.670;8.994;2023-07-20T09:36:34;23.10;93.80
3919;DHT22;1974;48.670;8.994;2023-07-20T09:39:03;23.10;93.70
3919;DHT22;1974;48.670;8.994;2023-07-20T09:41:30;23.10;93.20
3919;DHT22;1974;48.670;8.994;2023-07-20T09:44:05;23.10;93.50
3919;DHT22;1974;48.670;8.994;2023-07-20T09:46:41;23.30;93.20
3919;DHT22;1974;48.670;8.994;2023-07-20T09:49:10;23.60;92.60
3919;DHT22;1974;48.670;8.994;2023-07-20T09:51:36;23.90;92.20
3919;DHT22;1974;48.670;8.994;2023-07-20T09:54:04;24.20;92.10
3919;DHT22;1974;48.670;8.994;2023-07-20T09:56:31;24.40;88.80
3919;DHT22;1974;48.670;8.994;2023-07-20T09:58:59;24.60;87.60
3919;DHT22;1974;48.670;8.994;2023-07-20T10:01:26;25.00;88.60
3919;DHT22;1974;48.670;8.994;2023-07-20T10:03:57;25.20;88.10
3919;DHT22;1974;48.670;8.994;2023-07-20T10:06:29;25.70;90.20
3919;DHT22;1974;48.670;8.994;2023-07-20T10:09:00;25.90;85.30
3919;DHT22;1974;48.670;8.994;2023-07-20T10:11:30;25.90;85.60
3919;DHT22;1974;48.670;8.994;2023-07-20T10:13:59;25.60;84.30
3919;DHT22;1974;48.670;8.994;2023-07-20T10:16:28;25.30;85.70
3919;DHT22;1974;48.670;8.994;2023-07-20T10:19:03;25.30;88.00
3919;DHT22;1974;48.670;8.994;2023-07-20T10:21:35;25.60;85.20
3919;DHT22;1974;48.670;8.994;2023-07-20T10:24:04;25.60;86.30
3919;DHT22;1974;48.670;8.994;2023-07-20T10:26:31;25.80;85.50
3919;DHT22;1974;48.670;8.994;2023-07-20T10:28:58;25.90;85.50
3919;DHT22;1974;48.670;8.994;2023-07-20T10:31:26;26.00;87.40
3919;DHT22;1974;48.670;8.994;2023-07-20T10:33:54;26.10;82.90
3919;DHT22;1974;48.670;8.994;2023-07-20T10:36:25;26.20;80.20
3919;DHT22;1974;48.670;8.994;2023-07-20T10:38:55;26.20;79.90
3919;DHT22;1974;48.670;8.994;2023-07-20T10:41:27;26.30;81.20
3919;DHT22;1974;48.670;8.994;2023-07-20T10:43:58;26.30;77.90
3919;DHT22;1974;48.670;8.994;2023-07-20T10:46:42;26.10;77.40
3919;DHT22;1974;48.670;8.994;2023-07-20T10:49:11;25.80;79.30
3919;DHT22;1974;48.670;8.994;2023-07-20T10:51:42;25.40;79.30
3919;DHT22;1974;48.670;8.994;2023-07-20T10:54:34;25.40;78.30
3919;DHT22;1974;48.670;8.994;2023-07-20T10:57:22;25.60;79.60
3919;DHT22;1974;48.670;8.994;2023-07-20T10:59:49;25.40;80.50
3919;DHT22;1974;48.670;8.994;2023-07-20T11:02:18;25.30;79.30
3919;DHT22;1974;48.670;8.994;2023-07-20T11:04:47;25.10;81.10
3919;DHT22;1974;48.670;8.994;2023-07-20T11:07:20;25.00;79.30
3919;DHT22;1974;48.670;8.994;2023-07-20T11:10:14;25.30;81.00
3919;DHT22;1974;48.670;8.994;2023-07-20T11:12:41;25.70;79.60
3919;DHT22;1974;48.670;8.994;2023-07-20T11:15:08;25.90;77.20
3919;DHT22;1974;48.670;8.994;2023-07-20T11:17:35;26.20;76.00
3919;DHT22;1974;48.670;8.994;2023-07-20T11:20:04;26.40;74.30
3919;DHT22;1974;48.670;8.994;2023-07-20T11:22:31;26.30;78.00
3919;DHT22;1974;48.670;8.994;2023-07-20T11:24:58;26.00;75.80
3919;DHT22;1974;48.670;8.994;2023-07-20T11:27:26;25.90;76.60
3919;DHT22;1974;48.670;8.994;2023-07-20T11:29:53;25.80;76.30
3919;DHT22;1974;48.670;8.994;2023-07-20T11:32:20;25.70;76.30
3919;DHT22;1974;48.670;8.994;2023-07-20T11:34:48;25.60;77.60
3919;DHT22;1974;48.670;8.994;2023-07-20T11:37:15;25.50;76.10
3919;DHT22;1974;48.670;8.994;2023-07-20T11:39:42;25.60;76.50
3919;DHT22;1974;48.670;8.994;2023-07-20T11:42:09;25.70;77.00
3919;DHT22;1974;48.670;8.994;2023-07-20T11:44:38;25.80;74.60
3919;DHT22;1974;48.670;8.994;2023-07-20T11:47:07;25.90;74.10
3919;DHT22;1974;48.670;8.994;2023-07-20T11:49:35;25.80;74.50
3919;DHT22;1974;48.670;8.994;2023-07-20T11:52:04;25.70;75.10
3919;DHT22;1974;48.670;8.994;2023-07-20T11:54:32;25.60;73.80
3919;DHT22;1974;48.670;8.994;2023-07-20T11:57:01;25.70;74.80
3919;DHT22;1974;48.670;8.994;2023-07-20T11:59:27;25.80;74.10
3919;DHT22;1974;48.670;8.994;2023-07-20T12:01:56;26.00;73.20
3919;DHT22;1974;48.670;8.994;2023-07-20T12:04:22;26.00;74.10
3919;DHT22;1974;48.670;8.994;2023-07-20T12:06:49;25.90;74.80
3919;DHT22;1974;48.670;8.994;2023-07-20T12:09:17;25.90;74.40
3919;DHT22;1974;48.670;8.994;2023-07-20T12:11:44;25.80;72.60
3919;DHT22;1974;48.670;8.994;2023-07-20T12:14:11;25.80;72.00
3919;DHT22;1974;48.670;8.994;2023-07-20T12:16:38;25.60;71.50
3919;DHT22;1974;48.670;8.994;2023-07-20T12:19:08;25.40;73.00
3919;DHT22;1974;48.670;8.994;2023-07-20T12:21:36;25.40;73.90
3919;DHT22;1974;48.670;8.994;2023-07-20T12:24:03;25.50;74.00
3919;DHT22;1974;48.670;8.994;2023-07-20T12:26:31;25.60;72.10
3919;DHT22;1974;48.670;8.994;2023-07-20T12:28:58;25.80;73.80
3919;DHT22;1974;48.670;8.994;2023-07-20T12:31:25;25.80;74.70
3919;DHT22;1974;48.670;8.994;2023-07-20T12:33:53;25.90;74.10
3919;DHT22;1974;48.670;8.994;2023-07-20T12:36:22;25.90;71.70
3919;DHT22;1974;48.670;8.994;2023-07-20T12:38:49;25.80;71.90
3919;DHT22;1974;48.670;8.994;2023-07-20T12:41:16;25.80;71.10
3919;DHT22;1974;48.670;8.994;2023-07-20T12:43:44;25.80;72.50
3919;DHT22;1974;48.670;8.994;2023-07-20T12:46:12;25.70;72.20
3919;DHT22;1974;48.670;8.994;2023-07-20T12:48:40;25.60;72.00
3919;DHT22;1974;48.670;8.994;2023-07-20T12:51:08;25.40;69.20
3919;DHT22;1974;48.670;8.994;2023-07-20T12:53:36;25.30;69.80
3919;DHT22;1974;48.670;8.994;2023-07-20T12:56:03;25.20;70.00
3919;DHT22;1974;48.670;8.994;2023-07-20T12:58:30;25.10;71.00
3919;DHT22;1974;48.670;8.994;2023-07-20T13:00:57;25.10;73.70
3919;DHT22;1974;48.670;8.994;2023-07-20T13:03:24;25.00;72.30
3919;DHT22;1974;48.670;8.994;2023-07-20T13:05:51;25.10;72.40
3919;DHT22;1974;48.670;8.994;2023-07-20T13:08:17;25.10;71.90
3919;DHT22;1974;48.670;8.994;2023-07-20T13:10:46;25.00;71.60
3919;DHT22;1974;48.670;8.994;2023-07-20T13:13:14;25.00;71.50
3919;DHT22;1974;48.670;8.994;2023-07-20T13:15:42;25.00;72.80
3919;DHT22;1974;48.670;8.994;2023-07-20T13:18:09;25.00;72.30
3919;DHT22;1974;48.670;8.994;2023-07-20T13:20:36;24.90;70.20
3919;DHT22;1974;48.670;8.994;2023-07-20T13:23:04;24.90;69.90
3919;DHT22;1974;48.670;8.994;2023-07-20T13:25:30;24.90;72.10
3919;DHT22;1974;48.670;8.994;2023-07-20T13:27:58;24.80;73.70
3919;DHT22;1974;48.670;8.994;2023-07-20T13:30:25;24.80;72.20
3919;DHT22;1974;48.670;8.994;2023-07-20T13:32:52;24.80;72.80
3919;DHT22;1974;48.670;8.994;2023-07-20T13:35:19;24.90;71.90
3919;DHT22;1974;48.670;8.994;2023-07-20T13:37:45;24.90;70.20
3919;DHT22;1974;48.670;8.994;2023-07-20T13:40:14;24.70;70.00
3919;DHT22;1974;48.670;8.994;2023-07-20T13:42:44;24.70;70.10
3919;DHT22;1974;48.670;8.994;2023-07-20T13:45:12;24.60;70.50
3919;DHT22;1974;48.670;8.994;2023-07-20T13:47:39;24.60;68.40
3919;DHT22;1974;48.670;8.994;2023-07-20T13:50:06;24.50;70.00
3919;DHT22;1974;48.670;8.994;2023-07-20T13:52:33;24.40;70.60
3919;DHT22;1974;48.670;8.994;2023-07-20T13:55:00;24.30;69.90
3919;DHT22;1974;48.670;8.994;2023-07-20T13:57:27;24.20;70.50
3919;DHT22;1974;48.670;8.994;2023-07-20T13:59:54;24.40;70.10
3919;DHT22;1974;48.670;8.994;2023-07-20T14:02:22;24.40;70.40
3919;DHT22;1974;48.670;8.994;2023-07-20T14:04:49;24.40;69.40
3919;DHT22;1974;48.670;8.994;2023-07-20T14:07:16;24.50;69.20
3919;DHT22;1974;48.670;8.994;2023-07-20T14:09:42;24.50;70.20
3919;DHT22;1974;48.670;8.994;2023-07-20T14:12:09;24.40;69.20
3919;DHT22;1974;48.670;8.994;2023-07-20T14:14:39;24.40;70.40
3919;DHT22;1974;48.670;8.994;2023-07-20T14:17:06;24.40;69.90
3919;DHT22;1974;48.670;8.994;2023-07-20T14:19:36;24.30;72.20
3919;DHT22;1974;48.670;8.994;2023-07-20T14:22:04;24.30;72.10
3919;DHT22;1974;48.670;8.994;2023-07-20T14:24:31;24.30;70.40
3919;DHT22;1974;48.670;8.994;2023-07-20T14:26:58;24.30;70.70
3919;DHT22;1974;48.670;8.994;2023-07-20T14:29:26;24.30;71.40
3919;DHT22;1974;48.670;8.994;2023-07-20T14:31:53;24.40;69.70
3919;DHT22;1974;48.670;8.994;2023-07-20T14:34:20;24.30;69.60
3919;DHT22;1974;48.670;8.994;2023-07-20T14:36:48;24.10;71.10
3919;DHT22;1974;48.670;8.994;2023-07-20T14:39:15;24.10;71.50
3919;DHT22;1974;48.670;8.994;2023-07-20T14:41:42;24.10;69.50
3919;DHT22;1974;48.670;8.994;2023-07-20T14:44:08;24.10;69.30
3919;DHT22;1974;48.670;8.994;2023-07-20T14:46:35;24.10;70.30
3919;DHT22;1974;48.670;8.994;2023-07-20T14:49:02;24.00;70.20
3919;DHT22;1974;48.670;8.994;2023-07-20T14:51:29;24.00;70.90
3919;DHT22;1974;48.670;8.994;2023-07-20T14:53:59;24.00;72.10
3919;DHT22;1974;48.670;8.994;2023-07-20T14:56:26;24.00;72.00
3919;DHT22;1974;48.670;8.994;2023-07-20T14:58:53;24.00;71.80
3919;DHT22;1974;48.670;8.994;2023-07-20T15:01:20;24.00;70.00
3919;DHT22;1974;48.670;8.994;2023-07-20T15:03:47;24.00;68.90
3919;DHT22;1974;48.670;8.994;2023-07-20T15:06:15;24.00;70.10
3919;DHT22;1974;48.670;8.994;2023-07-20T15:08:42;23.90;71.70
3919;DHT22;1974;48.670;8.994;2023-07-20T15:11:10;23.70;72.70
3919;DHT22;1974;48.670;8.994;2023-07-20T15:13:37;23.70;73.50
3919;DHT22;1974;48.670;8.994;2023-07-20T15:16:04;23.70;74.30
3919;DHT22;1974;48.670;8.994;2023-07-20T15:18:30;23.80;71.80
3919;DHT22;1974;48.670;8.994;2023-07-20T15:20:57;23.90;71.80
3919;DHT22;1974;48.670;8.994;2023-07-20T15:23:24;24.00;73.60
3919;DHT22;1974;48.670;8.994;2023-07-20T15:25:51;24.00;71.70
3919;DHT22;1974;48.670;8.994;2023-07-20T15:28:19;24.20;70.90
3919;DHT22;1974;48.670;8.994;2023-07-20T15:30:45;24.20;71.60
3919;DHT22;1974;48.670;8.994;2023-07-20T15:33:12;24.30;72.50
3919;DHT22;1974;48.670;8.994;2023-07-20T15:35:39;24.30;71.00
3919;DHT22;1974;48.670;8.994;2023-07-20T15:38:06;24.40;71.00
3919;DHT22;1974;48.670;8.994;2023-07-20T15:40:33;24.40;72.30
3919;DHT22;1974;48.670;8.994;2023-07-20T15:43:00;24.50;72.30
3919;DHT22;1974;48.670;8.994;2023-07-20T15:45:28;24.40;71.70
3919;DHT22;1974;48.670;8.994;2023-07-20T15:47:55;24.40;70.90
3919;DHT22;1974;48.670;8.994;2023-07-20T15:50:22;24.30;71.40
3919;DHT22;1974;48.670;8.994;2023-07-20T15:52:49;24.20;70.30
3919;DHT22;1974;48.670;8.994;2023-07-20T15:55:16;24.20;70.10
3919;DHT22;1974;48.670;8.994;2023-07-20T15:57:43;24.20;72.20
3919;DHT22;1974;48.670;8.994;2023-07-20T16:00:10;24.20;72.40
3919;DHT22;1974;48.670;8.994;2023-07-20T16:02:39;24.10;71.80
3919;DHT22;1974;48.670;8.994;2023-07-20T16:05:06;24.10;72.80
3919;DHT22;1974;48.670;8.994;2023-07-20T16:07:32;23.90;72.70
3919;DHT22;1974;48.670;8.994;2023-07-20T16:09:59;24.00;72.60